sensor_id;sensor_type;location;lat;lon;timestamp;pressure;altitude;pressure_sealevel;temperature;humidity
49541;BME280;35432;43.566;1.398;2023-04-04T00:00:07;100049.19;;;8.58;65.43
49541;BME280;35432;43.566;1.398;2023-04-04T00:02:33;100055.28;;;8.53;65.55
49541;BME280;35432;43.566;1.398;2023-04-04T00:04:58;100056.13;;;8.48;65.66
49541;BME280;35432;43.566;1.398;2023-04-04T00:07:24;100059.63;;;8.46;65.60
49541;BME280;35432;43.566;1.398;2023-04-04T00:09:49;100057.00;;;8.46;65.88
49541;BME280;35432;43.566;1.398;2023-04-04T00:12:15;100051.75;;;8.46;65.68
49541;BME280;35432;43.566;1.398;2023-04-04T00:14:40;100068.38;;;8.46;65.43
49541;BME280;35432;43.566;1.398;2023-04-04T00:17:06;100066.63;;;8.47;65.49
49541;BME280;35432;43.566;1.398;2023-04-04T00:19:31;100060.47;;;8.43;65.66
49541;BME280;35432;43.566;1.398;2023-04-04T00:21:56;100063.13;;;8.42;65.43
49541;BME280;35432;43.566;1.398;2023-04-04T00:24:22;100064.00;;;8.41;65.56
49541;BME280;35432;43.566;1.398;2023-04-04T00:26:47;100060.50;;;8.36;65.26
49541;BME280;35432;43.566;1.398;2023-04-04T00:29:12;100062.22;;;8.27;66.11
49541;BME280;35432;43.566;1.398;2023-04-04T00:31:38;100063.09;;;8.25;65.99
49541;BME280;35432;43.566;1.398;2023-04-04T00:34:03;100066.59;;;8.24;65.86
49541;BME280;35432;43.566;1.398;2023-04-04T00:36:28;100062.19;;;8.21;65.68
49541;BME280;35432;43.566;1.398;2023-04-04T00:38:54;100060.44;;;8.20;65.57
49541;BME280;35432;43.566;1.398;2023-04-04T00:41:19;100059.56;;;8.18;65.34
49541;BME280;35432;43.566;1.398;2023-04-04T00:43:45;100053.44;;;8.10;65.76
49541;BME280;35432;43.566;1.398;2023-04-04T00:46:11;100052.53;;;8.01;65.77
49541;BME280;35432;43.566;1.398;2023-04-04T00:48:40;100045.53;;;7.94;65.76
49541;BME280;35432;43.566;1.398;2023-04-04T00:51:06;100049.88;;;7.90;65.91
49541;BME280;35432;43.566;1.398;2023-04-04T00:53:31;100049.88;;;7.87;66.25
49541;BME280;35432;43.566;1.398;2023-04-04T00:55:57;100056.00;;;7.85;66.14
49541;BME280;35432;43.566;1.398;2023-04-04T00:58:23;100050.69;;;7.79;66.40
49541;BME280;35432;43.566;1.398;2023-04-04T01:00:50;100048.09;;;7.74;66.16
49541;BME280;35432;43.566;1.398;2023-04-04T01:03:16;100054.19;;;7.73;66.49
49541;BME280;35432;43.566;1.398;2023-04-04T01:05:42;100055.06;;;7.72;66.58
49541;BME280;35432;43.566;1.398;2023-04-04T01:08:07;100044.56;;;7.70;66.19
49541;BME280;35432;43.566;1.398;2023-04-04T01:10:33;100047.16;;;7.64;65.93
49541;BME280;35432;43.566;1.398;2023-04-04T01:13:00;100041.88;;;7.55;66.31
49541;BME280;35432;43.566;1.398;2023-04-04T01:15:25;100036.59;;;7.49;66.86
49541;BME280;35432;43.566;1.398;2023-04-04T01:17:53;100029.59;;;7.44;66.35
49541;BME280;35432;43.566;1.398;2023-04-04T01:20:24;100029.59;;;7.41;66.97
49541;BME280;35432;43.566;1.398;2023-04-04T01:22:50;100031.31;;;7.36;66.48
49541;BME280;35432;43.566;1.398;2023-04-04T01:25:18;100028.66;;;7.31;67.12
49541;BME280;35432;43.566;1.398;2023-04-04T01:27:45;100031.25;;;7.27;66.81
49541;BME280;35432;43.566;1.398;2023-04-04T01:30:11;100034.72;;;7.23;66.76
49541;BME280;35432;43.566;1.398;2023-04-04T01:32:44;100034.69;;;7.16;66.91
49541;BME280;35432;43.566;1.398;2023-04-04T01:35:37;100023.28;;;7.08;67.50
49541;BME280;35432;43.566;1.398;2023-04-04T01:40:54;100027.56;;;6.95;67.19
49541;BME280;35432;43.566;1.398;2023-04-04T01:43:21;100027.53;;;6.92;66.95
49541;BME280;35432;43.566;1.398;2023-04-04T01:45:48;100023.19;;;6.93;67.63
49541;BME280;35432;43.566;1.398;2023-04-04T01:48:13;100023.19;;;6.93;67.52
49541;BME280;35432;43.566;1.398;2023-04-04T01:50:40;100024.94;;;6.94;67.42
49541;BME280;35432;43.566;1.398;2023-04-04T01:53:06;100032.81;;;6.94;67.67
49541;BME280;35432;43.566;1.398;2023-04-04T01:55:31;100022.31;;;6.94;67.11
49541;BME280;35432;43.566;1.398;2023-04-04T01:57:57;100027.53;;;6.91;67.60
49541;BME280;35432;43.566;1.398;2023-04-04T02:00:23;100018.81;;;6.88;67.52
49541;BME280;35432;43.566;1.398;2023-04-04T02:02:48;100024.00;;;6.85;66.97
49541;BME280;35432;43.566;1.398;2023-04-04T02:05:13;100029.22;;;6.82;67.06
49541;BME280;35432;43.566;1.398;2023-04-04T02:07:39;100025.69;;;6.77;67.09
49541;BME280;35432;43.566;1.398;2023-04-04T02:10:05;100030.03;;;6.75;67.04
49541;BME280;35432;43.566;1.398;2023-04-04T02:12:30;100029.16;;;6.73;67.47
49541;BME280;35432;43.566;1.398;2023-04-04T02:14:55;100032.63;;;6.69;67.50
49541;BME280;35432;43.566;1.398;2023-04-04T02:17:21;100032.59;;;6.66;67.04
49541;BME280;35432;43.566;1.398;2023-04-04T02:19:46;100029.91;;;6.63;67.16
49541;BME280;35432;43.566;1.398;2023-04-04T02:22:11;100028.16;;;6.57;67.53
49541;BME280;35432;43.566;1.398;2023-04-04T02:24:37;100019.41;;;6.53;67.83
49541;BME280;35432;43.566;1.398;2023-04-04T02:27:02;100020.25;;;6.52;67.33
49541;BME280;35432;43.566;1.398;2023-04-04T02:29:28;100017.63;;;6.49;67.49
49541;BME280;35432;43.566;1.398;2023-04-04T02:31:54;100022.84;;;6.46;67.57
49541;BME280;35432;43.566;1.398;2023-04-04T02:34:19;100023.69;;;6.45;68.02
49541;BME280;35432;43.566;1.398;2023-04-04T02:36:45;100019.34;;;6.47;67.57
49541;BME280;35432;43.566;1.398;2023-04-04T02:39:11;100016.72;;;6.47;67.68
49541;BME280;35432;43.566;1.398;2023-04-04T02:41:36;100014.97;;;6.47;67.74
49541;BME280;35432;43.566;1.398;2023-04-04T02:44:01;100016.72;;;6.44;67.63
49541;BME280;35432;43.566;1.398;2023-04-04T02:46:27;100014.00;;;6.38;68.19
49541;BME280;35432;43.566;1.398;2023-04-04T02:48:52;100006.13;;;6.31;67.83
49541;BME280;35432;43.566;1.398;2023-04-04T02:51:17;100013.94;;;6.28;68.24
49541;BME280;35432;43.566;1.398;2023-04-04T02:53:43;100013.09;;;6.28;67.88
49541;BME280;35432;43.566;1.398;2023-04-04T02:56:09;100012.22;;;6.29;67.67
49541;BME280;35432;43.566;1.398;2023-04-04T02:58:34;100027.06;;;6.30;67.86
49541;BME280;35432;43.566;1.398;2023-04-04T03:00:59;100027.06;;;6.30;68.03
49541;BME280;35432;43.566;1.398;2023-04-04T03:03:25;100032.25;;;6.28;67.45
49541;BME280;35432;43.566;1.398;2023-04-04T03:05:51;100039.22;;;6.29;68.29
49541;BME280;35432;43.566;1.398;2023-04-04T03:08:16;100039.22;;;6.29;67.74
49541;BME280;35432;43.566;1.398;2023-04-04T03:10:43;100039.22;;;6.26;68.10
49541;BME280;35432;43.566;1.398;2023-04-04T03:13:09;100032.19;;;6.22;67.93
49541;BME280;35432;43.566;1.398;2023-04-04T03:15:34;100032.16;;;6.16;67.44
49541;BME280;35432;43.566;1.398;2023-04-04T03:18:01;100034.69;;;6.11;68.19
49541;BME280;35432;43.566;1.398;2023-04-04T03:20:27;100028.53;;;6.05;68.52
49541;BME280;35432;43.566;1.398;2023-04-04T03:22:52;100021.47;;;5.97;68.72
49541;BME280;35432;43.566;1.398;2023-04-04T03:25:18;100022.22;;;5.90;68.08
49541;BME280;35432;43.566;1.398;2023-04-04T03:27:43;100026.53;;;5.85;68.42
49541;BME280;35432;43.566;1.398;2023-04-04T03:30:09;100018.63;;;5.79;68.61
49541;BME280;35432;43.566;1.398;2023-04-04T03:32:36;100016.91;;;5.79;68.58
49541;BME280;35432;43.566;1.398;2023-04-04T03:35:02;100019.50;;;5.78;68.40
49541;BME280;35432;43.566;1.398;2023-04-04T03:37:29;100017.72;;;5.73;68.54
49541;BME280;35432;43.566;1.398;2023-04-04T03:39:54;100028.97;;;5.69;68.74
49541;BME280;35432;43.566;1.398;2023-04-04T03:42:20;100026.38;;;5.69;68.98
49541;BME280;35432;43.566;1.398;2023-04-04T03:44:46;100031.59;;;5.71;68.86
49541;BME280;35432;43.566;1.398;2023-04-04T03:47:12;100030.69;;;5.69;68.28
49541;BME280;35432;43.566;1.398;2023-04-04T03:49:38;100030.66;;;5.66;68.71
49541;BME280;35432;43.566;1.398;2023-04-04T03:52:03;100036.75;;;5.65;68.74
49541;BME280;35432;43.566;1.398;2023-04-04T03:54:29;100040.19;;;5.62;68.77
49541;BME280;35432;43.566;1.398;2023-04-04T03:56:55;100032.34;;;5.60;68.46
49541;BME280;35432;43.566;1.398;2023-04-04T03:59:21;100026.22;;;5.57;68.45
49541;BME280;35432;43.566;1.398;2023-04-04T04:01:47;100027.94;;;5.55;68.63
49541;BME280;35432;43.566;1.398;2023-04-04T04:04:13;100032.28;;;5.56;69.01
49541;BME280;35432;43.566;1.398;2023-04-04T04:06:38;100015.72;;;5.54;68.54
49541;BME280;35432;43.566;1.398;2023-04-04T04:09:03;100026.09;;;5.49;68.86
49541;BME280;35432;43.566;1.398;2023-04-04T04:11:29;100026.06;;;5.44;68.88
49541;BME280;35432;43.566;1.398;2023-04-04T04:13:55;100025.09;;;5.38;69.12
49541;BME280;35432;43.566;1.398;2023-04-04T04:16:20;100030.25;;;5.31;69.43
49541;BME280;35432;43.566;1.398;2023-04-04T04:18:46;100033.66;;;5.26;69.63
49541;BME280;35432;43.566;1.398;2023-04-04T04:21:12;100038.78;;;5.21;69.73
49541;BME280;35432;43.566;1.398;2023-04-04T04:23:37;100040.47;;;5.17;69.32
49541;BME280;35432;43.566;1.398;2023-04-04T04:26:03;100034.44;;;5.19;69.20
49541;BME280;35432;43.566;1.398;2023-04-04T04:28:29;100036.19;;;5.20;69.38
49541;BME280;35432;43.566;1.398;2023-04-04T04:30:54;100043.09;;;5.17;69.53
49541;BME280;35432;43.566;1.398;2023-04-04T04:33:20;100038.72;;;5.15;69.51
49541;BME280;35432;43.566;1.398;2023-04-04T04:35:55;100046.47;;;5.10;69.76
49541;BME280;35432;43.566;1.398;2023-04-04T04:38:22;100038.56;;;5.04;69.83
49541;BME280;35432;43.566;1.398;2023-04-04T04:40:48;100036.72;;;4.98;69.94
49541;BME280;35432;43.566;1.398;2023-04-04T04:43:13;100041.00;;;4.93;69.88
49541;BME280;35432;43.566;1.398;2023-04-04T04:45:40;100046.22;;;4.93;70.12
49541;BME280;35432;43.566;1.398;2023-04-04T04:48:06;100048.88;;;4.95;69.89
49541;BME280;35432;43.566;1.398;2023-04-04T04:50:31;100034.97;;;4.96;69.70
49541;BME280;35432;43.566;1.398;2023-04-04T04:52:57;100046.22;;;4.93;69.44
49541;BME280;35432;43.566;1.398;2023-04-04T04:55:22;100041.78;;;4.86;69.57
49541;BME280;35432;43.566;1.398;2023-04-04T04:57:48;100044.25;;;4.78;69.96
49541;BME280;35432;43.566;1.398;2023-04-04T05:00:14;100048.53;;;4.74;69.80
49541;BME280;35432;43.566;1.398;2023-04-04T05:02:39;100044.97;;;4.69;70.08
49541;BME280;35432;43.566;1.398;2023-04-04T05:05:05;100052.72;;;4.65;70.69
49541;BME280;35432;43.566;1.398;2023-04-04T05:07:31;100050.06;;;4.60;70.64
49541;BME280;35432;43.566;1.398;2023-04-04T05:09:56;100048.22;;;4.54;70.22
49541;BME280;35432;43.566;1.398;2023-04-04T05:12:21;100047.31;;;4.52;70.28
49541;BME280;35432;43.566;1.398;2023-04-04T05:14:47;100045.56;;;4.51;70.86
49541;BME280;35432;43.566;1.398;2023-04-04T05:17:12;100059.50;;;4.55;69.99
49541;BME280;35432;43.566;1.398;2023-04-04T05:19:38;100054.34;;;4.58;70.13
49541;BME280;35432;43.566;1.398;2023-04-04T05:22:03;100059.59;;;4.59;70.22
49541;BME280;35432;43.566;1.398;2023-04-04T05:24:28;100070.84;;;4.57;70.26
49541;BME280;35432;43.566;1.398;2023-04-04T05:26:54;100069.94;;;4.53;70.41
49541;BME280;35432;43.566;1.398;2023-04-04T05:29:19;100070.78;;;4.52;70.41
49541;BME280;35432;43.566;1.398;2023-04-04T05:31:45;100075.91;;;4.48;70.32
49541;BME280;35432;43.566;1.398;2023-04-04T05:34:11;100082.88;;;4.47;70.50
49541;BME280;35432;43.566;1.398;2023-04-04T05:36:36;100074.97;;;4.44;70.33
49541;BME280;35432;43.566;1.398;2023-04-04T05:39:02;100074.91;;;4.41;70.30
49541;BME280;35432;43.566;1.398;2023-04-04T05:41:31;100076.66;;;4.42;70.47
49541;BME280;35432;43.566;1.398;2023-04-04T05:43:58;100082.78;;;4.42;70.10
49541;BME280;35432;43.566;1.398;2023-04-04T05:46:23;100088.00;;;4.44;69.87
49541;BME280;35432;43.566;1.398;2023-04-04T05:48:50;100094.06;;;4.43;70.31
49541;BME280;35432;43.566;1.398;2023-04-04T05:51:16;100100.13;;;4.40;70.68
49541;BME280;35432;43.566;1.398;2023-04-04T05:53:41;100106.19;;;4.41;70.79
49541;BME280;35432;43.566;1.398;2023-04-04T05:56:10;100112.25;;;4.40;70.25
49541;BME280;35432;43.566;1.398;2023-04-04T05:58:35;100110.53;;;4.40;70.71
49541;BME280;35432;43.566;1.398;2023-04-04T06:01:00;100122.88;;;4.51;70.14
49541;BME280;35432;43.566;1.398;2023-04-04T06:03:27;100123.06;;;4.60;70.40
49541;BME280;35432;43.566;1.398;2023-04-04T06:05:53;100124.13;;;4.71;70.29
49541;BME280;35432;43.566;1.398;2023-04-04T06:08:18;100122.66;;;4.87;69.35
49541;BME280;35432;43.566;1.398;2023-04-04T06:10:44;100126.38;;;5.02;68.89
49541;BME280;35432;43.566;1.398;2023-04-04T06:13:09;100126.78;;;5.27;68.59
49541;BME280;35432;43.566;1.398;2023-04-04T06:15:35;100131.50;;;5.53;68.12
49541;BME280;35432;43.566;1.398;2023-04-04T06:18:00;100114.47;;;5.81;67.66
49541;BME280;35432;43.566;1.398;2023-04-04T06:20:27;100127.03;;;6.07;66.73
49541;BME280;35432;43.566;1.398;2023-04-04T06:22:52;100126.44;;;6.35;65.36
49541;BME280;35432;43.566;1.398;2023-04-04T06:25:18;100130.19;;;6.58;65.63
49541;BME280;35432;43.566;1.398;2023-04-04T06:27:43;100132.94;;;6.71;64.92
49541;BME280;35432;43.566;1.398;2023-04-04T06:30:10;100138.31;;;6.85;64.75
49541;BME280;35432;43.566;1.398;2023-04-04T06:32:35;100133.19;;;6.99;64.89
49541;BME280;35432;43.566;1.398;2023-04-04T06:35:01;100122.78;;;7.07;64.66
49541;BME280;35432;43.566;1.398;2023-04-04T06:37:26;100124.56;;;7.11;65.07
49541;BME280;35432;43.566;1.398;2023-04-04T06:39:51;100126.28;;;7.10;64.65
49541;BME280;35432;43.566;1.398;2023-04-04T06:42:17;100132.47;;;7.18;64.28
49541;BME280;35432;43.566;1.398;2023-04-04T06:44:43;100129.03;;;7.29;64.39
49541;BME280;35432;43.566;1.398;2023-04-04T06:47:08;100134.28;;;7.29;65.16
49541;BME280;35432;43.566;1.398;2023-04-04T06:49:34;100123.81;;;7.32;64.88
49541;BME280;35432;43.566;1.398;2023-04-04T06:51:59;100130.00;;;7.39;65.01
49541;BME280;35432;43.566;1.398;2023-04-04T06:54:25;100121.34;;;7.49;64.61
49541;BME280;35432;43.566;1.398;2023-04-04T06:56:50;100121.41;;;7.60;64.72
49541;BME280;35432;43.566;1.398;2023-04-04T06:59:17;100136.34;;;7.75;64.23
49541;BME280;35432;43.566;1.398;2023-04-04T07:01:42;100133.78;;;7.86;64.21
49541;BME280;35432;43.566;1.398;2023-04-04T07:04:08;100134.66;;;7.91;64.30
49541;BME280;35432;43.566;1.398;2023-04-04T07:06:33;100138.19;;;7.99;64.25
49541;BME280;35432;43.566;1.398;2023-04-04T07:08:59;100142.56;;;8.02;64.37
49541;BME280;35432;43.566;1.398;2023-04-04T07:11:24;100136.44;;;8.01;64.09
49541;BME280;35432;43.566;1.398;2023-04-04T07:13:49;100139.09;;;8.09;64.47
49541;BME280;35432;43.566;1.398;2023-04-04T07:16:15;100138.25;;;8.12;63.91
49541;BME280;35432;43.566;1.398;2023-04-04T07:18:40;100137.41;;;8.21;64.24
49541;BME280;35432;43.566;1.398;2023-04-04T07:21:06;100147.03;;;8.23;63.81
49541;BME280;35432;43.566;1.398;2023-04-04T07:23:31;100154.94;;;8.36;63.71
49541;BME280;35432;43.566;1.398;2023-04-04T07:25:57;100147.16;;;8.50;63.37
49541;BME280;35432;43.566;1.398;2023-04-04T07:28:22;100150.69;;;8.59;63.17
49541;BME280;35432;43.566;1.398;2023-04-04T07:30:48;100138.44;;;8.74;63.00
49541;BME280;35432;43.566;1.398;2023-04-04T07:33:13;100143.72;;;8.86;62.45
49541;BME280;35432;43.566;1.398;2023-04-04T07:35:38;100142.84;;;9.01;62.33
49541;BME280;35432;43.566;1.398;2023-04-04T07:38:04;100143.72;;;9.11;62.33
49541;BME280;35432;43.566;1.398;2023-04-04T07:40:30;100140.19;;;9.22;61.80
49541;BME280;35432;43.566;1.398;2023-04-04T07:42:56;100142.84;;;9.29;61.28
49541;BME280;35432;43.566;1.398;2023-04-04T07:45:21;100153.34;;;9.40;61.48
49541;BME280;35432;43.566;1.398;2023-04-04T07:47:47;100157.72;;;9.54;61.48
49541;BME280;35432;43.566;1.398;2023-04-04T07:50:12;100156.78;;;9.67;60.72
49541;BME280;35432;43.566;1.398;2023-04-04T07:52:39;100153.25;;;9.79;60.18
49541;BME280;35432;43.566;1.398;2023-04-04T07:55:05;100152.38;;;9.85;60.01
49541;BME280;35432;43.566;1.398;2023-04-04T07:57:40;100154.09;;;9.92;59.47
49541;BME280;35432;43.566;1.398;2023-04-04T08:00:06;100158.44;;;10.05;59.53
49541;BME280;35432;43.566;1.398;2023-04-04T08:02:35;100151.38;;;10.12;59.08
49541;BME280;35432;43.566;1.398;2023-04-04T08:05:00;100152.25;;;10.19;58.95
49541;BME280;35432;43.566;1.398;2023-04-04T08:07:25;100163.59;;;10.33;59.00
49541;BME280;35432;43.566;1.398;2023-04-04T08:09:51;100159.16;;;10.45;58.54
49541;BME280;35432;43.566;1.398;2023-04-04T08:12:16;100147.59;;;10.77;57.86
49541;BME280;35432;43.566;1.398;2023-04-04T08:14:42;100147.31;;;11.11;56.75
49541;BME280;35432;43.566;1.398;2023-04-04T08:17:07;100141.84;;;11.38;54.72
49541;BME280;35432;43.566;1.398;2023-04-04T08:19:32;100152.94;;;11.69;54.07
49541;BME280;35432;43.566;1.398;2023-04-04T08:21:58;100157.16;;;11.86;53.24
49541;BME280;35432;43.566;1.398;2023-04-04T08:24:23;100149.13;;;11.98;52.56
49541;BME280;35432;43.566;1.398;2023-04-04T08:26:49;100155.25;;;12.03;52.88
49541;BME280;35432;43.566;1.398;2023-04-04T08:29:14;100152.56;;;12.08;53.33
49541;BME280;35432;43.566;1.398;2023-04-04T08:31:39;100154.19;;;12.17;53.70
49541;BME280;35432;43.566;1.398;2023-04-04T08:34:05;100150.50;;;12.30;54.09
49541;BME280;35432;43.566;1.398;2023-04-04T08:36:33;100145.97;;;12.39;53.46
49541;BME280;35432;43.566;1.398;2023-04-04T08:38:58;100146.03;;;12.35;53.77
49541;BME280;35432;43.566;1.398;2023-04-04T08:41:24;100141.63;;;12.36;54.43
49541;BME280;35432;43.566;1.398;2023-04-04T08:43:52;100146.88;;;12.38;53.97
49541;BME280;35432;43.566;1.398;2023-04-04T08:46:20;100145.19;;;12.33;53.63
49541;BME280;35432;43.566;1.398;2023-04-04T08:48:49;100144.31;;;12.31;53.64
49541;BME280;35432;43.566;1.398;2023-04-04T08:51:15;100134.53;;;12.40;53.54
49541;BME280;35432;43.566;1.398;2023-04-04T08:53:42;100143.28;;;12.42;53.64
49541;BME280;35432;43.566;1.398;2023-04-04T08:56:07;100141.50;;;12.47;53.62
49541;BME280;35432;43.566;1.398;2023-04-04T08:58:33;100142.19;;;12.58;53.64
49541;BME280;35432;43.566;1.398;2023-04-04T09:00:58;100150.91;;;12.67;53.07
49541;BME280;35432;43.566;1.398;2023-04-04T09:03:28;100154.44;;;12.64;52.25
49541;BME280;35432;43.566;1.398;2023-04-04T09:05:57;100146.53;;;12.62;52.64
49541;BME280;35432;43.566;1.398;2023-04-04T09:08:23;100147.25;;;12.74;52.27
49541;BME280;35432;43.566;1.398;2023-04-04T09:10:49;100154.19;;;12.83;51.94
49541;BME280;35432;43.566;1.398;2023-04-04T09:13:15;100144.50;;;12.82;51.79
49541;BME280;35432;43.566;1.398;2023-04-04T09:15:45;100147.91;;;12.88;51.72
49541;BME280;35432;43.566;1.398;2023-04-04T09:18:11;100149.47;;;13.02;51.10
49541;BME280;35432;43.566;1.398;2023-04-04T09:20:46;100154.75;;;13.03;50.44
49541;BME280;35432;43.566;1.398;2023-04-04T09:23:15;100158.91;;;13.18;50.06
49541;BME280;35432;43.566;1.398;2023-04-04T09:25:49;100151.84;;;13.19;49.13
49541;BME280;35432;43.566;1.398;2023-04-04T09:28:15;100157.13;;;13.19;49.23
49541;BME280;35432;43.566;1.398;2023-04-04T09:30:42;100154.53;;;13.17;49.65
49541;BME280;35432;43.566;1.398;2023-04-04T09:33:11;100160.59;;;13.23;49.78
49541;BME280;35432;43.566;1.398;2023-04-04T09:35:38;100157.78;;;13.32;49.72
49541;BME280;35432;43.566;1.398;2023-04-04T09:38:06;100158.50;;;13.42;49.76
49541;BME280;35432;43.566;1.398;2023-04-04T09:40:31;100169.84;;;13.52;48.79
49541;BME280;35432;43.566;1.398;2023-04-04T09:43:03;100160.03;;;13.57;48.82
49541;BME280;35432;43.566;1.398;2023-04-04T09:45:33;100164.41;;;13.58;48.23
49541;BME280;35432;43.566;1.398;2023-04-04T09:48:00;100169.78;;;13.55;47.71
49541;BME280;35432;43.566;1.398;2023-04-04T09:50:25;100166.28;;;13.53;48.40
49541;BME280;35432;43.566;1.398;2023-04-04T09:52:55;100167.81;;;13.66;48.40
49541;BME280;35432;43.566;1.398;2023-04-04T09:55:34;100162.34;;;13.75;48.18
49541;BME280;35432;43.566;1.398;2023-04-04T09:58:24;100169.38;;;13.76;47.88
49541;BME280;35432;43.566;1.398;2023-04-04T10:00:58;100166.47;;;13.90;48.23
49541;BME280;35432;43.566;1.398;2023-04-04T10:03:24;100166.09;;;14.09;48.60
49541;BME280;35432;43.566;1.398;2023-04-04T10:06:08;100170.00;;;14.33;47.13
49541;BME280;35432;43.566;1.398;2023-04-04T10:08:40;100171.66;;;14.41;46.29
49541;BME280;35432;43.566;1.398;2023-04-04T10:11:07;100169.91;;;14.40;46.35
49541;BME280;35432;43.566;1.398;2023-04-04T10:13:35;100172.66;;;14.33;46.71
49541;BME280;35432;43.566;1.398;2023-04-04T10:16:02;100171.56;;;14.44;46.35
49541;BME280;35432;43.566;1.398;2023-04-04T10:18:32;100174.00;;;14.55;45.86
49541;BME280;35432;43.566;1.398;2023-04-04T10:21:00;100174.72;;;14.61;45.88
49541;BME280;35432;43.566;1.398;2023-04-04T10:23:26;100180.66;;;14.74;45.84
49541;BME280;35432;43.566;1.398;2023-04-04T10:25:56;100183.06;;;14.85;45.59
49541;BME280;35432;43.566;1.398;2023-04-04T10:28:22;100176.72;;;14.92;45.42
49541;BME280;35432;43.566;1.398;2023-04-04T10:31:08;100182.09;;;14.89;44.55
49541;BME280;35432;43.566;1.398;2023-04-04T10:33:47;100177.81;;;14.82;44.03
49541;BME280;35432;43.566;1.398;2023-04-04T10:36:23;100173.31;;;14.86;45.55
49541;BME280;35432;43.566;1.398;2023-04-04T10:39:58;100180.13;;;14.98;44.63
49541;BME280;35432;43.566;1.398;2023-04-04T10:42:18;100185.13;;;15.10;44.63
49541;BME280;35432;43.566;1.398;2023-04-04T10:44:44;100190.81;;;15.31;44.94
49541;BME280;35432;43.566;1.398;2023-04-04T10:47:17;100193.44;;;15.32;43.66
49541;BME280;35432;43.566;1.398;2023-04-04T10:49:45;100188.69;;;15.45;43.89
49541;BME280;35432;43.566;1.398;2023-04-04T10:52:12;100198.03;;;15.60;43.55
49541;BME280;35432;43.566;1.398;2023-04-04T10:54:39;100189.94;;;15.65;44.34
49541;BME280;35432;43.566;1.398;2023-04-04T10:57:06;100192.22;;;15.81;44.01
49541;BME280;35432;43.566;1.398;2023-04-04T10:59:31;100185.81;;;15.88;43.75
49541;BME280;35432;43.566;1.398;2023-04-04T11:01:58;100185.50;;;16.00;43.25
49541;BME280;35432;43.566;1.398;2023-04-04T11:04:34;100183.53;;;16.07;42.42
49541;BME280;35432;43.566;1.398;2023-04-04T11:09:53;100181.69;;;16.11;41.64
49541;BME280;35432;43.566;1.398;2023-04-04T11:12:43;100194.81;;;16.15;41.57
49541;BME280;35432;43.566;1.398;2023-04-04T11:15:14;100199.09;;;16.21;41.41
49541;BME280;35432;43.566;1.398;2023-04-04T11:20:29;100191.47;;;16.09;40.90
49541;BME280;35432;43.566;1.398;2023-04-04T11:23:08;100197.13;;;15.96;40.70
49541;BME280;35432;43.566;1.398;2023-04-04T11:25:48;100200.69;;;15.95;41.17
49541;BME280;35432;43.566;1.398;2023-04-04T11:39:14;100197.22;;;16.55;40.16
49541;BME280;35432;43.566;1.398;2023-04-04T11:42:00;100202.00;;;16.43;40.84
49541;BME280;35432;43.566;1.398;2023-04-04T11:44:29;100184.72;;;16.58;40.85
49541;BME280;35432;43.566;1.398;2023-04-04T11:47:08;100184.22;;;16.74;40.89
49541;BME280;35432;43.566;1.398;2023-04-04T11:49:36;100174.81;;;16.92;40.32
49541;BME280;35432;43.566;1.398;2023-04-04T11:52:06;100183.47;;;17.00;41.11
49541;BME280;35432;43.566;1.398;2023-04-04T11:54:33;100180.13;;;17.20;40.95
49541;BME280;35432;43.566;1.398;2023-04-04T11:56:59;100184.25;;;17.31;40.49
49541;BME280;35432;43.566;1.398;2023-04-04T11:59:24;100185.16;;;17.30;39.47
49541;BME280;35432;43.566;1.398;2023-04-04T12:01:50;100181.06;;;17.19;39.09
49541;BME280;35432;43.566;1.398;2023-04-04T12:04:19;100191.94;;;17.12;39.75
49541;BME280;35432;43.566;1.398;2023-04-04T12:06:49;100180.13;;;17.20;40.25
49541;BME280;35432;43.566;1.398;2023-04-04T12:09:18;100175.44;;;17.29;39.43
49541;BME280;35432;43.566;1.398;2023-04-04T12:11:45;100182.16;;;17.41;39.60
49541;BME280;35432;43.566;1.398;2023-04-04T12:14:17;100167.59;;;17.51;39.54
49541;BME280;35432;43.566;1.398;2023-04-04T12:16:47;100171.41;;;17.69;39.23
49541;BME280;35432;43.566;1.398;2023-04-04T12:19:13;100174.44;;;17.84;38.98
49541;BME280;35432;43.566;1.398;2023-04-04T12:21:38;100164.38;;;17.92;38.58
49541;BME280;35432;43.566;1.398;2023-04-04T12:24:08;100154.88;;;18.10;38.60
49541;BME280;35432;43.566;1.398;2023-04-04T12:26:36;100163.34;;;18.21;38.36
49541;BME280;35432;43.566;1.398;2023-04-04T12:29:02;100159.91;;;18.18;38.38
49541;BME280;35432;43.566;1.398;2023-04-04T12:31:28;100161.88;;;18.13;37.85
49541;BME280;35432;43.566;1.398;2023-04-04T12:33:54;100162.00;;;18.10;37.32
49541;BME280;35432;43.566;1.398;2023-04-04T12:36:20;100161.44;;;18.01;37.32
49541;BME280;35432;43.566;1.398;2023-04-04T12:39:15;100160.63;;;17.72;36.54
49541;BME280;35432;43.566;1.398;2023-04-04T12:42:07;100165.88;;;17.75;37.78
49541;BME280;35432;43.566;1.398;2023-04-04T12:44:35;100154.88;;;17.85;37.70
49541;BME280;35432;43.566;1.398;2023-04-04T12:47:03;100151.25;;;17.87;36.99
49541;BME280;35432;43.566;1.398;2023-04-04T12:49:43;100151.44;;;17.81;36.86
49541;BME280;35432;43.566;1.398;2023-04-04T12:52:17;100150.34;;;17.87;37.44
49541;BME280;35432;43.566;1.398;2023-04-04T12:54:45;100152.50;;;18.02;37.39
49541;BME280;35432;43.566;1.398;2023-04-04T12:57:10;100153.44;;;18.01;36.92
49541;BME280;35432;43.566;1.398;2023-04-04T12:59:44;100144.44;;;18.04;36.89
49541;BME280;35432;43.566;1.398;2023-04-04T13:02:12;100140.81;;;18.06;37.23
49541;BME280;35432;43.566;1.398;2023-04-04T13:04:38;100139.84;;;18.09;37.41
49541;BME280;35432;43.566;1.398;2023-04-04T13:07:18;100125.25;;;18.18;37.24
49541;BME280;35432;43.566;1.398;2023-04-04T13:10:03;100137.09;;;18.11;36.87
49541;BME280;35432;43.566;1.398;2023-04-04T13:12:54;100129.75;;;18.17;37.70
49541;BME280;35432;43.566;1.398;2023-04-04T13:15:46;100133.09;;;18.22;35.81